createdAt,value
2023-05-05T00:02:37.140Z,2.20
2023-05-05T00:07:01.113Z,2.50
2023-05-05T00:11:35.940Z,2.00
2023-05-05T00:16:07.536Z,1.90
2023-05-05T00:20:40.883Z,2.70
2023-05-05T00:25:12.566Z,2.10
2023-05-05T00:29:41.161Z,2.10
2023-05-05T00:34:07.040Z,1.80
2023-05-05T00:38:36.335Z,2.20
2023-05-05T00:43:00.301Z,2.40
2023-05-05T00:47:29.952Z,2.40
2023-05-05T00:51:55.913Z,2.10
2023-05-05T00:56:23.838Z,2.10
2023-05-05T01:00:56.568Z,2.10
2023-05-05T01:05:26.129Z,2.10
2023-05-05T01:10:18.853Z,2.20
2023-05-05T01:14:53.492Z,2.50
2023-05-05T01:19:31.931Z,2.20
2023-05-05T01:24:04.665Z,2.10
2023-05-05T01:28:34.221Z,1.90
2023-05-05T01:32:58.191Z,2.10
2023-05-05T01:37:23.363Z,2.00
2023-05-05T01:41:53.148Z,2.40
2023-05-05T01:46:23.114Z,2.60
2023-05-05T01:50:54.073Z,2.10
2023-05-05T01:55:21.050Z,2.40
2023-05-05T01:59:51.608Z,2.50
2023-05-05T02:04:15.534Z,2.50
2023-05-05T02:13:46.076Z,2.30
2023-05-05T02:18:12.861Z,2.00
2023-05-05T02:22:37.755Z,2.40
2023-05-05T02:27:03.781Z,2.40
2023-05-05T02:31:36.005Z,2.30
2023-05-05T02:36:06.595Z,2.10
2023-05-05T02:40:41.245Z,2.10
2023-05-05T02:45:05.333Z,2.30
2023-05-05T02:49:31.411Z,2.10
2023-05-05T02:54:05.944Z,2.20
2023-05-05T02:58:47.918Z,2.40
2023-05-05T03:03:17.682Z,2.30
2023-05-05T03:07:43.640Z,2.40
2023-05-05T03:12:08.647Z,2.40
2023-05-05T03:16:34.679Z,2.40
2023-05-05T03:20:58.676Z,2.00
2023-05-05T03:25:22.635Z,2.30
2023-05-05T03:29:46.715Z,2.90
2023-05-05T03:34:15.939Z,2.60
2023-05-05T03:38:41.865Z,2.40
2023-05-05T03:43:11.361Z,2.20
2023-05-05T03:47:35.357Z,2.70
2023-05-05T03:52:03.024Z,2.70
2023-05-05T03:56:26.947Z,2.30
2023-05-05T04:00:57.518Z,2.70
2023-05-05T04:05:30.400Z,2.90
2023-05-05T04:09:54.280Z,3.00
2023-05-05T04:14:19.358Z,2.20
2023-05-05T04:18:44.386Z,2.80
2023-05-05T04:23:16.286Z,2.80
2023-05-05T04:27:41.222Z,2.50
2023-05-05T04:32:19.009Z,2.60
2023-05-05T04:36:51.573Z,2.40
2023-05-05T04:41:17.488Z,2.40
2023-05-05T04:45:42.321Z,2.50
2023-05-05T04:50:29.515Z,2.90
2023-05-05T04:54:54.820Z,3.00
2023-05-05T04:59:25.465Z,2.80
2023-05-05T05:04:03.247Z,2.40
2023-05-05T05:08:30.470Z,3.30
2023-05-05T05:13:04.098Z,3.60
2023-05-05T05:17:31.428Z,4.00
2023-05-05T05:22:02.223Z,4.90
2023-05-05T05:26:28.100Z,3.80
2023-05-05T05:30:57.737Z,4.20
2023-05-05T05:35:28.580Z,4.10
2023-05-05T05:39:54.402Z,3.70
2023-05-05T05:44:24.241Z,4.00
2023-05-05T05:48:53.176Z,4.10
2023-05-05T05:53:26.003Z,3.10
2023-05-05T05:57:52.042Z,3.00
2023-05-05T06:02:23.007Z,3.00
2023-05-05T06:06:57.628Z,2.80
2023-05-05T06:11:23.486Z,2.90
2023-05-05T06:15:47.500Z,2.60
2023-05-05T06:20:12.491Z,2.90
2023-05-05T06:24:38.079Z,2.40
2023-05-05T06:29:02.882Z,2.50
2023-05-05T06:33:27.007Z,2.90
2023-05-05T06:37:50.994Z,2.70
2023-05-05T06:42:16.890Z,2.50
2023-05-05T06:46:50.251Z,2.50
2023-05-05T06:51:19.930Z,2.80
2023-05-05T06:55:47.587Z,2.70
2023-05-05T07:00:11.552Z,2.30
2023-05-05T07:04:37.622Z,2.00
2023-05-05T07:09:07.359Z,1.60
2023-05-05T07:13:31.303Z,2.10
2023-05-05T07:17:59.635Z,2.10
2023-05-05T07:22:23.656Z,2.20
2023-05-05T07:26:49.025Z,2.20
2023-05-05T07:31:13.126Z,1.90
2023-05-05T07:35:39.206Z,1.80
2023-05-05T07:40:03.154Z,1.90
2023-05-05T07:44:27.229Z,1.70
2023-05-05T07:48:51.237Z,2.20
2023-05-05T07:53:16.107Z,1.90
2023-05-05T07:57:42.728Z,1.80
2023-05-05T08:02:06.767Z,1.80
2023-05-05T08:06:36.996Z,1.90
2023-05-05T08:11:05.316Z,2.00
2023-05-05T08:15:38.153Z,1.90
2023-05-05T08:20:07.866Z,2.20
2023-05-05T08:24:39.560Z,2.10
2023-05-05T08:29:10.098Z,1.80
2023-05-05T08:33:42.929Z,2.10
2023-05-05T08:38:06.767Z,2.30
2023-05-05T08:42:37.727Z,1.60
2023-05-05T08:47:05.983Z,2.30
2023-05-05T08:51:40.421Z,1.90
2023-05-05T08:56:04.425Z,2.00
2023-05-05T09:00:35.240Z,2.20
2023-05-05T09:05:02.340Z,2.10
2023-05-05T09:09:19.500Z,2.00
2023-05-05T09:13:46.456Z,1.70
2023-05-05T09:18:11.082Z,2.00
2023-05-05T09:22:39.207Z,2.10
2023-05-05T09:27:08.912Z,2.20
2023-05-05T09:31:43.444Z,2.30
2023-05-05T09:36:12.800Z,2.20
2023-05-05T09:41:13.077Z,1.80
2023-05-05T09:46:10.395Z,1.60
2023-05-05T09:50:48.208Z,1.40
2023-05-05T09:55:34.818Z,1.60
2023-05-05T10:05:13.634Z,1.60
2023-05-05T10:09:58.865Z,1.70
2023-05-05T10:14:22.176Z,1.70
2023-05-05T10:18:50.191Z,1.70
2023-05-05T10:23:25.943Z,1.80
2023-05-05T10:31:57.641Z,1.60
2023-05-05T10:36:24.891Z,2.80
2023-05-05T10:53:12.246Z,1.50
2023-05-05T10:57:40.728Z,1.70
2023-05-05T11:02:09.755Z,1.70
2023-05-05T11:06:48.209Z,1.60
2023-05-05T11:11:34.130Z,1.60
2023-05-05T11:16:27.338Z,1.80
2023-05-05T11:21:17.224Z,1.60
2023-05-05T11:25:51.908Z,1.80
2023-05-05T11:30:45.647Z,1.60
2023-05-05T11:35:50.485Z,1.90
2023-05-05T11:40:40.764Z,1.60
2023-05-05T11:45:13.633Z,1.80
2023-05-05T11:49:36.796Z,1.50
2023-05-05T11:54:23.606Z,1.70
2023-05-05T11:58:59.608Z,1.50
2023-05-05T12:04:03.578Z,1.50
2023-05-05T12:08:45.713Z,1.50
2023-05-05T12:13:15.559Z,1.70
2023-05-05T12:18:02.381Z,1.60
2023-05-05T12:22:47.453Z,1.20
2023-05-05T12:27:32.467Z,1.70
2023-05-05T12:31:58.645Z,1.40
2023-05-05T12:36:21.879Z,1.50
2023-05-05T12:40:51.509Z,1.30
2023-05-05T12:45:15.991Z,1.50
2023-05-05T12:50:28.285Z,1.30
2023-05-05T12:55:32.164Z,1.40
2023-05-05T13:00:37.109Z,1.70
2023-05-05T13:05:49.903Z,1.30
2023-05-05T13:10:53.838Z,1.30
2023-05-05T13:15:26.950Z,1.40
2023-05-05T13:20:11.785Z,1.30
2023-05-05T13:24:50.818Z,1.70
2023-05-05T13:29:16.423Z,2.00
2023-05-05T13:34:00.187Z,1.80
2023-05-05T13:38:45.538Z,1.50
2023-05-05T13:43:50.343Z,1.40
2023-05-05T13:48:34.828Z,1.50
2023-05-05T13:52:57.674Z,1.40
2023-05-05T13:57:22.475Z,1.20
2023-05-05T14:02:28.454Z,1.30
2023-05-05T14:07:12.645Z,2.10
2023-05-05T14:11:56.945Z,1.40
2023-05-05T14:16:43.411Z,1.40
2023-05-05T14:21:49.391Z,1.40
2023-05-05T14:26:59.075Z,1.40
2023-05-05T14:31:24.624Z,1.20
2023-05-05T14:40:13.218Z,2.30
2023-05-05T14:44:37.301Z,1.30
2023-05-05T14:49:21.308Z,1.60
2023-05-05T14:54:14.224Z,1.40
2023-05-05T14:58:52.223Z,2.90
2023-05-05T15:03:38.745Z,1.50
2023-05-05T15:08:25.876Z,2.60
2023-05-05T15:12:50.657Z,2.70
2023-05-05T15:17:34.989Z,2.30
2023-05-05T15:22:00.876Z,2.00
2023-05-05T15:27:04.845Z,1.80
2023-05-05T15:31:52.289Z,1.70
2023-05-05T15:36:20.408Z,1.30
2023-05-05T15:40:43.639Z,1.40
2023-05-05T15:45:27.833Z,1.60
2023-05-05T15:50:13.611Z,1.40
2023-05-05T15:54:45.799Z,1.30
2023-05-05T15:59:32.885Z,1.20
2023-05-05T16:04:16.216Z,1.50
2023-05-05T16:09:07.949Z,1.50
2023-05-05T16:13:52.636Z,1.40
2023-05-05T16:18:18.299Z,1.70
2023-05-05T16:23:02.534Z,2.20
2023-05-05T16:27:27.926Z,1.90
2023-05-05T16:32:13.961Z,1.70
2023-05-05T16:36:58.956Z,1.50
2023-05-05T16:41:44.298Z,1.40
2023-05-05T16:46:09.381Z,1.60
2023-05-05T16:50:35.574Z,1.50
2023-05-05T16:55:39.491Z,1.40
2023-05-05T17:00:04.441Z,1.40
2023-05-05T17:04:28.424Z,1.70
2023-05-05T17:08:52.431Z,1.80
2023-05-05T17:13:16.413Z,1.50
2023-05-05T17:18:21.231Z,1.70
2023-05-05T17:23:05.178Z,1.80
2023-05-05T17:27:29.109Z,1.90
2023-05-05T17:31:54.428Z,1.60
2023-05-05T17:37:01.144Z,1.60
2023-05-05T17:41:33.386Z,1.50
2023-05-05T17:46:17.791Z,2.40
2023-05-05T17:51:22.580Z,1.70
2023-05-05T17:56:27.527Z,1.90
2023-05-05T18:00:54.147Z,1.70
2023-05-05T18:05:39.552Z,1.90
2023-05-05T18:10:32.551Z,2.00
2023-05-05T18:15:16.655Z,1.60
2023-05-05T18:20:01.792Z,1.70
2023-05-05T18:24:47.930Z,2.20
2023-05-05T18:29:31.239Z,2.10
2023-05-05T18:33:55.278Z,1.80
2023-05-05T18:38:43.904Z,2.00
2023-05-05T18:43:10.005Z,2.00
2023-05-05T18:47:35.319Z,2.20
2023-05-05T18:52:19.512Z,2.10
2023-05-05T18:57:11.500Z,1.80
2023-05-05T19:01:57.493Z,1.80
2023-05-05T19:06:21.588Z,2.00
2023-05-05T19:11:07.790Z,1.60
2023-05-05T19:15:53.728Z,2.00
2023-05-05T19:20:40.212Z,2.00
2023-05-05T19:25:24.612Z,2.10
2023-05-05T19:30:30.680Z,2.20
2023-05-05T19:34:59.418Z,2.30
2023-05-05T19:39:27.237Z,2.30
2023-05-05T19:43:57.743Z,1.90
2023-05-05T19:49:03.593Z,2.20
2023-05-05T19:54:04.141Z,2.10
2023-05-05T19:58:49.390Z,2.60
2023-05-05T20:03:35.732Z,2.50
2023-05-05T20:08:40.461Z,1.90
2023-05-05T20:13:44.366Z,2.10
2023-05-05T20:18:50.184Z,1.90
2023-05-05T20:23:54.094Z,2.10
2023-05-05T20:28:38.291Z,2.30
2023-05-05T20:33:06.235Z,2.20
2023-05-05T20:37:53.239Z,1.90
2023-05-05T20:42:59.667Z,2.10
2023-05-05T20:47:43.989Z,2.10
2023-05-05T20:52:10.001Z,2.20
2023-05-05T20:56:38.576Z,2.40
2023-05-05T21:01:11.507Z,2.40
2023-05-05T21:05:38.750Z,2.30
2023-05-05T21:10:23.254Z,2.00
2023-05-05T21:15:07.344Z,2.40
2023-05-05T21:20:11.336Z,2.40
2023-05-05T21:25:15.870Z,2.20
2023-05-05T21:30:19.814Z,2.60
2023-05-05T21:35:06.111Z,2.20
2023-05-05T21:39:55.318Z,2.40
2023-05-05T21:44:26.429Z,2.10
2023-05-05T21:49:28.383Z,2.20
2023-05-05T21:54:35.101Z,2.20
2023-05-05T21:59:40.679Z,2.30
2023-05-05T22:04:10.824Z,2.40
2023-05-05T22:08:55.826Z,2.00
2023-05-05T22:13:41.473Z,2.00
2023-05-05T22:18:46.356Z,2.30
2023-05-05T22:23:34.001Z,2.50
2023-05-05T22:28:00.755Z,2.50
2023-05-05T22:33:06.696Z,2.30
2023-05-05T22:37:40.082Z,2.30
2023-05-05T22:42:38.262Z,2.10
2023-05-05T22:47:31.456Z,2.60
2023-05-05T22:52:22.131Z,2.30
2023-05-05T22:57:09.006Z,2.10
2023-05-05T23:02:16.781Z,1.90
2023-05-05T23:07:21.417Z,2.30
2023-05-05T23:11:52.342Z,2.70
2023-05-05T23:16:38.528Z,2.40
2023-05-05T23:21:11.973Z,2.50
2023-05-05T23:25:38.609Z,2.40
2023-05-05T23:30:07.494Z,2.50
2023-05-05T23:34:51.902Z,3.00
2023-05-05T23:39:36.138Z,2.60
2023-05-05T23:44:01.155Z,2.60
2023-05-05T23:48:45.977Z,2.00
2023-05-05T23:53:13.329Z,3.40
2023-05-05T23:57:39.380Z,2.80
